Time,TemperatureF,DewpointF,PressureIn,WindDirection,WindDirectionDegrees,WindSpeedMPH,WindSpeedGustMPH,Humidity,HourlyPrecipIn,Conditions,Clouds,dailyrainin,SolarRadiationWatts/m^2,SoftwareType,DateUTC
2013-01-20 00:02:00,39.0,35.0,-100.00,WNW,283,0.0,4.0,87,0.00,,,0.00,0.000000,,2013-01-20 06:02:00,
2013-01-20 00:12:00,39.0,35.0,-100.00,WNW,283,0.0,4.0,87,0.00,,,0.00,0.000000,,2013-01-20 06:12:00,
2013-01-20 00:22:00,39.0,35.0,-100.00,WNW,283,0.0,4.0,87,0.00,,,0.00,0.000000,,2013-01-20 06:22:00,
2013-01-20 00:32:00,38.0,35.0,-100.00,SSW,212,0.0,3.0,89,0.00,,,0.00,0.000000,,2013-01-20 06:32:00,
2013-01-20 00:53:00,38.0,35.0,-100.00,SSW,212,0.0,3.0,89,0.00,,,0.00,0.000000,,2013-01-20 06:53:00,
2013-01-20 01:02:00,38.0,35.0,-100.00,SSW,212,0.0,3.0,89,0.00,,,0.00,0.000000,,2013-01-20 07:02:00,
2013-01-20 01:12:00,38.0,35.0,-100.00,SSW,212,0.0,3.0,89,0.00,,,0.00,0.000000,,2013-01-20 07:12:00,
2013-01-20 01:22:00,38.0,35.0,-100.00,SSW,212,0.0,3.0,89,0.00,,,0.00,0.000000,,2013-01-20 07:22:00,
2013-01-20 01:32:00,37.0,34.0,-100.00,South,190,0.0,2.0,90,0.00,,,0.00,0.000000,,2013-01-20 07:32:00,
2013-01-20 01:52:00,37.0,34.0,-100.00,South,190,0.0,2.0,90,0.00,,,0.00,0.000000,,2013-01-20 07:52:00,
2013-01-20 02:02:00,37.0,34.0,-100.00,South,190,0.0,2.0,90,0.00,,,0.00,0.000000,,2013-01-20 08:02:00,
2013-01-20 02:12:00,37.0,34.0,-100.00,South,190,0.0,2.0,90,0.00,,,0.00,0.000000,,2013-01-20 08:12:00,
2013-01-20 02:22:00,37.0,34.0,-100.00,South,190,0.0,2.0,90,0.00,,,0.00,0.000000,,2013-01-20 08:22:00,
2013-01-20 02:32:00,36.0,34.0,-100.00,SSW,213,0.0,2.0,91,0.00,,,0.00,0.000000,,2013-01-20 08:32:00,
2013-01-20 02:53:00,36.0,34.0,-100.00,SSW,213,0.0,2.0,91,0.00,,,0.00,0.000000,,2013-01-20 08:53:00,
2013-01-20 03:02:00,36.0,34.0,-100.00,SSW,213,0.0,2.0,91,0.00,,,0.00,0.000000,,2013-01-20 09:02:00,
2013-01-20 03:12:00,36.0,34.0,-100.00,SSW,213,0.0,2.0,91,0.00,,,0.00,0.000000,,2013-01-20 09:12:00,
2013-01-20 03:22:00,36.0,34.0,-100.00,SSW,213,0.0,2.0,91,0.00,,,0.00,0.000000,,2013-01-20 09:22:00,
2013-01-20 03:32:00,36.0,34.0,-100.00,SW,227,0.0,2.0,91,0.00,,,0.00,0.000000,,2013-01-20 09:32:00,
2013-01-20 03:53:00,36.0,34.0,-100.00,SW,227,0.0,2.0,91,0.00,,,0.00,0.000000,,2013-01-20 09:53:00,
2013-01-20 04:02:00,36.0,34.0,-100.00,SW,227,0.0,2.0,91,0.00,,,0.00,0.000000,,2013-01-20 10:02:00,
2013-01-20 04:12:00,36.0,34.0,-100.00,SW,227,0.0,2.0,91,0.00,,,0.00,0.000000,,2013-01-20 10:12:00,
2013-01-20 04:22:00,36.0,34.0,-100.00,SW,227,0.0,2.0,91,0.00,,,0.00,0.000000,,2013-01-20 10:22:00,
2013-01-20 04:32:00,35.0,33.0,-100.00,SW,229,1.0,2.0,91,0.00,,,0.00,0.000000,,2013-01-20 10:32:00,
2013-01-20 04:52:00,35.0,33.0,-100.00,SW,229,1.0,2.0,91,0.00,,,0.00,0.000000,,2013-01-20 10:52:00,
2013-01-20 05:02:00,35.0,33.0,-100.00,SW,229,1.0,2.0,91,0.00,,,0.00,0.000000,,2013-01-20 11:02:00,
2013-01-20 05:12:00,35.0,33.0,-100.00,SW,229,1.0,2.0,91,0.00,,,0.00,0.000000,,2013-01-20 11:12:00,
2013-01-20 05:22:00,35.0,33.0,-100.00,SW,229,1.0,2.0,91,0.00,,,0.00,0.000000,,2013-01-20 11:22:00,
2013-01-20 05:32:00,35.0,33.0,-100.00,SSW,212,0.0,2.0,91,0.00,,,0.00,0.000000,,2013-01-20 11:32:00,
2013-01-20 05:53:00,35.0,33.0,-100.00,SSW,212,0.0,2.0,91,0.00,,,0.00,0.000000,,2013-01-20 11:53:00,
2013-01-20 06:03:00,35.0,33.0,-100.00,SSW,212,0.0,2.0,91,0.00,,,0.00,0.000000,,2013-01-20 12:03:00,
2013-01-20 06:12:00,35.0,33.0,-100.00,SSW,212,0.0,2.0,91,0.00,,,0.00,0.000000,,2013-01-20 12:12:00,
2013-01-20 06:23:00,35.0,33.0,-100.00,SSW,212,0.0,2.0,91,0.00,,,0.00,0.000000,,2013-01-20 12:23:00,
2013-01-20 06:32:00,35.0,33.0,-100.00,NE,43,0.0,0.0,92,0.00,,,0.00,0.000000,,2013-01-20 12:32:00,
2013-01-20 06:53:00,35.0,33.0,-100.00,NE,43,0.0,0.0,92,0.00,,,0.00,0.000000,,2013-01-20 12:53:00,
2013-01-20 07:03:00,35.0,33.0,-100.00,NE,43,0.0,0.0,92,0.00,,,0.00,0.000000,,2013-01-20 13:03:00,
2013-01-20 07:12:00,35.0,33.0,-100.00,NE,43,0.0,0.0,92,0.00,,,0.00,0.000000,,2013-01-20 13:12:00,
2013-01-20 07:23:00,35.0,33.0,-100.00,NE,43,0.0,0.0,92,0.00,,,0.00,0.000000,,2013-01-20 13:23:00,
2013-01-20 07:32:00,36.0,34.0,-100.00,North,3,0.0,0.0,92,0.00,,,0.00,5.000000,,2013-01-20 13:32:00,
2013-01-20 07:53:00,36.0,34.0,-100.00,North,3,0.0,0.0,92,0.00,,,0.00,5.000000,,2013-01-20 13:53:00,
2013-01-20 08:02:00,36.0,34.0,-100.00,North,3,0.0,0.0,92,0.00,,,0.00,5.000000,,2013-01-20 14:02:00,
2013-01-20 08:12:00,36.0,34.0,-100.00,North,3,0.0,0.0,92,0.00,,,0.00,5.000000,,2013-01-20 14:12:00,
2013-01-20 08:23:00,36.0,34.0,-100.00,North,3,0.0,0.0,92,0.00,,,0.00,5.000000,,2013-01-20 14:23:00,
2013-01-20 08:32:00,42.0,40.0,-100.00,SE,128,0.0,0.0,91,0.00,,,0.00,108.000000,,2013-01-20 14:32:00,
2013-01-20 08:53:00,42.0,40.0,-100.00,SE,128,0.0,0.0,91,0.00,,,0.00,108.000000,,2013-01-20 14:53:00,
2013-01-20 09:03:00,42.0,40.0,-100.00,SE,128,0.0,0.0,91,0.00,,,0.00,108.000000,,2013-01-20 15:03:00,
2013-01-20 09:12:00,42.0,40.0,-100.00,SE,128,0.0,0.0,91,0.00,,,0.00,108.000000,,2013-01-20 15:12:00,
2013-01-20 09:23:00,42.0,40.0,-100.00,SE,128,0.0,0.0,91,0.00,,,0.00,108.000000,,2013-01-20 15:23:00,
2013-01-20 09:32:00,53.0,46.0,-100.00,ESE,112,0.0,2.0,76,0.00,,,0.00,334.000000,,2013-01-20 15:32:00,
2013-01-20 09:53:00,53.0,46.0,-100.00,ESE,112,0.0,2.0,76,0.00,,,0.00,334.000000,,2013-01-20 15:53:00,
2013-01-20 10:03:00,53.0,46.0,-100.00,ESE,112,0.0,2.0,76,0.00,,,0.00,334.000000,,2013-01-20 16:03:00,
2013-01-20 10:12:00,53.0,46.0,-100.00,ESE,112,0.0,2.0,76,0.00,,,0.00,334.000000,,2013-01-20 16:12:00,
2013-01-20 10:23:00,53.0,46.0,-100.00,ESE,112,0.0,2.0,76,0.00,,,0.00,334.000000,,2013-01-20 16:23:00,
2013-01-20 10:32:00,61.0,48.0,-100.00,ESE,114,0.0,4.0,63,0.00,,,0.00,493.000000,,2013-01-20 16:32:00,
2013-01-20 10:53:00,61.0,48.0,-100.00,ESE,114,0.0,4.0,63,0.00,,,0.00,493.000000,,2013-01-20 16:53:00,
2013-01-20 11:03:00,61.0,48.0,-100.00,ESE,114,0.0,4.0,63,0.00,,,0.00,493.000000,,2013-01-20 17:03:00,
2013-01-20 11:12:00,61.0,48.0,-100.00,ESE,114,0.0,4.0,63,0.00,,,0.00,493.000000,,2013-01-20 17:12:00,
2013-01-20 11:22:00,61.0,48.0,-100.00,ESE,114,0.0,4.0,63,0.00,,,0.00,493.000000,,2013-01-20 17:22:00,
2013-01-20 11:32:00,64.0,42.0,-100.00,ESE,112,3.0,7.0,44,0.00,,,0.00,601.000000,,2013-01-20 17:32:00,
2013-01-20 11:53:00,64.0,42.0,-100.00,ESE,112,3.0,7.0,44,0.00,,,0.00,601.000000,,2013-01-20 17:53:00,
2013-01-20 12:03:00,64.0,42.0,-100.00,ESE,112,3.0,7.0,44,0.00,,,0.00,601.000000,,2013-01-20 18:03:00,
2013-01-20 12:13:00,64.0,42.0,-100.00,ESE,112,3.0,7.0,44,0.00,,,0.00,601.000000,,2013-01-20 18:13:00,
2013-01-20 12:23:00,64.0,42.0,-100.00,ESE,112,3.0,7.0,44,0.00,,,0.00,601.000000,,2013-01-20 18:23:00,
2013-01-20 12:32:00,65.0,38.0,-100.00,ESE,105,4.0,8.0,37,0.00,,,0.00,645.000000,,2013-01-20 18:32:00,
2013-01-20 12:53:00,65.0,38.0,-100.00,ESE,105,4.0,8.0,37,0.00,,,0.00,645.000000,,2013-01-20 18:53:00,
2013-01-20 13:02:00,65.0,38.0,-100.00,ESE,105,4.0,8.0,37,0.00,,,0.00,645.000000,,2013-01-20 19:02:00,
2013-01-20 13:12:00,65.0,38.0,-100.00,ESE,105,4.0,8.0,37,0.00,,,0.00,645.000000,,2013-01-20 19:12:00,
2013-01-20 13:22:00,65.0,38.0,-100.00,ESE,105,4.0,8.0,37,0.00,,,0.00,645.000000,,2013-01-20 19:22:00,
2013-01-20 13:32:00,68.0,39.0,-100.00,South,169,3.0,7.0,34,0.00,,,0.00,612.000000,,2013-01-20 19:32:00,
2013-01-20 13:53:00,68.0,39.0,-100.00,South,169,3.0,7.0,34,0.00,,,0.00,612.000000,,2013-01-20 19:53:00,
2013-01-20 14:03:00,68.0,39.0,-100.00,South,169,3.0,7.0,34,0.00,,,0.00,612.000000,,2013-01-20 20:03:00,
2013-01-20 14:12:00,68.0,39.0,-100.00,South,169,3.0,7.0,34,0.00,,,0.00,612.000000,,2013-01-20 20:12:00,
2013-01-20 14:23:00,68.0,39.0,-100.00,South,169,3.0,7.0,34,0.00,,,0.00,612.000000,,2013-01-20 20:23:00,
2013-01-20 14:32:00,68.0,39.0,-100.00,SSW,210,3.0,8.0,34,0.00,,,0.00,524.000000,,2013-01-20 20:32:00,
2013-01-20 14:53:00,68.0,39.0,-100.00,SSW,210,3.0,8.0,34,0.00,,,0.00,524.000000,,2013-01-20 20:53:00,
2013-01-20 15:03:00,68.0,39.0,-100.00,SSW,210,3.0,8.0,34,0.00,,,0.00,524.000000,,2013-01-20 21:03:00,
2013-01-20 15:13:00,68.0,39.0,-100.00,SSW,210,3.0,8.0,34,0.00,,,0.00,524.000000,,2013-01-20 21:13:00,
2013-01-20 15:23:00,68.0,39.0,-100.00,SSW,210,3.0,8.0,34,0.00,,,0.00,524.000000,,2013-01-20 21:23:00,
2013-01-20 15:32:00,68.0,39.0,-100.00,WSW,258,5.0,9.0,35,0.00,,,0.00,382.000000,,2013-01-20 21:32:00,
2013-01-20 15:53:00,68.0,39.0,-100.00,WSW,258,5.0,9.0,35,0.00,,,0.00,382.000000,,2013-01-20 21:53:00,
2013-01-20 16:03:00,68.0,39.0,-100.00,WSW,258,5.0,9.0,35,0.00,,,0.00,382.000000,,2013-01-20 22:03:00,
2013-01-20 16:13:00,68.0,39.0,-100.00,WSW,258,5.0,9.0,35,0.00,,,0.00,382.000000,,2013-01-20 22:13:00,
2013-01-20 16:23:00,68.0,39.0,-100.00,WSW,258,5.0,9.0,35,0.00,,,0.00,382.000000,,2013-01-20 22:23:00,
2013-01-20 16:32:00,67.0,38.0,-100.00,WNW,298,3.0,8.0,35,0.00,,,0.00,207.000000,,2013-01-20 22:32:00,
2013-01-20 16:53:00,67.0,38.0,-100.00,WNW,298,3.0,8.0,35,0.00,,,0.00,207.000000,,2013-01-20 22:53:00,
2013-01-20 17:03:00,67.0,38.0,-100.00,WNW,298,3.0,8.0,35,0.00,,,0.00,207.000000,,2013-01-20 23:03:00,
2013-01-20 17:13:00,67.0,38.0,-100.00,WNW,298,3.0,8.0,35,0.00,,,0.00,207.000000,,2013-01-20 23:13:00,
2013-01-20 17:23:00,67.0,38.0,-100.00,WNW,298,3.0,8.0,35,0.00,,,0.00,207.000000,,2013-01-20 23:23:00,
2013-01-20 17:32:00,59.0,42.0,-100.00,SSW,194,0.0,5.0,54,0.00,,,0.00,39.000000,,2013-01-20 23:32:00,
2013-01-20 17:53:00,59.0,42.0,-100.00,SSW,194,0.0,5.0,54,0.00,,,0.00,39.000000,,2013-01-20 23:53:00,
2013-01-20 18:03:00,59.0,42.0,-100.00,SSW,194,0.0,5.0,54,0.00,,,0.00,39.000000,,2013-01-21 00:03:00,
2013-01-20 18:13:00,59.0,42.0,-100.00,SSW,194,0.0,5.0,54,0.00,,,0.00,39.000000,,2013-01-21 00:13:00,
2013-01-20 18:23:00,59.0,42.0,-100.00,SSW,194,0.0,5.0,54,0.00,,,0.00,39.000000,,2013-01-21 00:23:00,
2013-01-20 18:32:00,51.0,40.0,-100.00,ENE,71,0.0,0.0,67,0.00,,,0.00,0.000000,,2013-01-21 00:32:00,
2013-01-20 18:54:00,51.0,40.0,-100.00,ENE,71,0.0,0.0,67,0.00,,,0.00,0.000000,,2013-01-21 00:54:00,
2013-01-20 19:03:00,51.0,40.0,-100.00,ENE,71,0.0,0.0,67,0.00,,,0.00,0.000000,,2013-01-21 01:03:00,
2013-01-20 19:13:00,51.0,40.0,-100.00,ENE,71,0.0,0.0,67,0.00,,,0.00,0.000000,,2013-01-21 01:13:00,
2013-01-20 19:23:00,51.0,40.0,-100.00,ENE,71,0.0,0.0,67,0.00,,,0.00,0.000000,,2013-01-21 01:23:00,
2013-01-20 19:32:00,48.0,40.0,-100.00,NE,41,0.0,0.0,73,0.00,,,0.00,0.000000,,2013-01-21 01:32:00,
2013-01-20 19:53:00,48.0,40.0,-100.00,NE,41,0.0,0.0,73,0.00,,,0.00,0.000000,,2013-01-21 01:53:00,
2013-01-20 20:03:00,48.0,40.0,-100.00,NE,41,0.0,0.0,73,0.00,,,0.00,0.000000,,2013-01-21 02:03:00,
2013-01-20 20:12:00,48.0,40.0,-100.00,NE,41,0.0,0.0,73,0.00,,,0.00,0.000000,,2013-01-21 02:12:00,
2013-01-20 20:23:00,48.0,40.0,-100.00,NE,41,0.0,0.0,73,0.00,,,0.00,0.000000,,2013-01-21 02:23:00,
2013-01-20 20:32:00,45.0,39.0,-100.00,South,172,0.0,1.0,79,0.00,,,0.00,0.000000,,2013-01-21 02:32:00,
2013-01-20 20:53:00,45.0,39.0,-100.00,South,172,0.0,1.0,79,0.00,,,0.00,0.000000,,2013-01-21 02:53:00,
2013-01-20 21:03:00,45.0,39.0,-100.00,South,172,0.0,1.0,79,0.00,,,0.00,0.000000,,2013-01-21 03:03:00,
2013-01-20 21:13:00,45.0,39.0,-100.00,South,172,0.0,1.0,79,0.00,,,0.00,0.000000,,2013-01-21 03:13:00,
2013-01-20 21:23:00,45.0,39.0,-100.00,South,172,0.0,1.0,79,0.00,,,0.00,0.000000,,2013-01-21 03:23:00,
2013-01-20 21:32:00,44.0,39.0,-100.00,SW,228,0.0,0.0,82,0.00,,,-99.99,0.000000,,2013-01-21 03:32:00,
2013-01-20 21:53:00,44.0,39.0,-100.00,SW,228,0.0,0.0,82,0.00,,,-99.99,0.000000,,2013-01-21 03:53:00,
2013-01-20 22:03:00,44.0,39.0,-100.00,SW,228,0.0,0.0,82,0.00,,,-99.99,0.000000,,2013-01-21 04:03:00,
2013-01-20 22:12:00,44.0,39.0,-100.00,SW,228,0.0,0.0,82,0.00,,,-99.99,0.000000,,2013-01-21 04:12:00,
2013-01-20 22:23:00,44.0,39.0,-100.00,SW,228,0.0,0.0,82,0.00,,,-99.99,0.000000,,2013-01-21 04:23:00,
2013-01-20 22:32:00,47.0,39.0,-100.00,SW,218,2.0,5.0,73,0.00,,,0.00,0.000000,,2013-01-21 04:32:00,
2013-01-20 22:53:00,47.0,39.0,-100.00,SW,218,2.0,5.0,73,0.00,,,0.00,0.000000,,2013-01-21 04:53:00,
2013-01-20 23:04:00,47.0,39.0,-100.00,SW,218,2.0,5.0,73,0.00,,,0.00,0.000000,,2013-01-21 05:04:00,
2013-01-20 23:12:00,47.0,39.0,-100.00,SW,218,2.0,5.0,73,0.00,,,0.00,0.000000,,2013-01-21 05:12:00,
2013-01-20 23:22:00,47.0,39.0,-100.00,SW,218,2.0,5.0,73,0.00,,,0.00,0.000000,,2013-01-21 05:22:00,
2013-01-20 23:32:00,44.0,39.0,-100.00,WSW,257,0.0,3.0,83,0.00,,,0.00,0.000000,,2013-01-21 05:32:00,
2013-01-20 23:53:00,44.0,39.0,-100.00,WSW,257,0.0,3.0,83,0.00,,,0.00,0.000000,,2013-01-21 05:53:00,